sensor_id;sensor_type;location;lat;lon;timestamp;pressure;altitude;pressure_sealevel;temperature;humidity
59435;BME280;45241;49.768;8.636;2023-05-29T00:02:13;100264.22;;;20.63;46.82
59435;BME280;45241;49.768;8.636;2023-05-29T00:04:39;100271.72;;;20.72;46.46
59435;BME280;45241;49.768;8.636;2023-05-29T00:07:04;100270.84;;;20.67;46.75
59435;BME280;45241;49.768;8.636;2023-05-29T00:09:30;100268.81;;;20.57;46.96
59435;BME280;45241;49.768;8.636;2023-05-29T00:11:55;100268.03;;;20.62;47.05
59435;BME280;45241;49.768;8.636;2023-05-29T00:14:21;100268.28;;;20.60;46.72
59435;BME280;45241;49.768;8.636;2023-05-29T00:16:49;100273.41;;;20.51;46.66
59435;BME280;45241;49.768;8.636;2023-05-29T00:19:15;100278.03;;;20.51;46.86
59435;BME280;45241;49.768;8.636;2023-05-29T00:21:42;100267.22;;;20.61;46.68
59435;BME280;45241;49.768;8.636;2023-05-29T00:24:08;100273.13;;;20.53;46.72
59435;BME280;45241;49.768;8.636;2023-05-29T00:26:33;100274.13;;;20.47;47.11
59435;BME280;45241;49.768;8.636;2023-05-29T00:28:58;100274.47;;;20.29;47.47
59435;BME280;45241;49.768;8.636;2023-05-29T00:31:23;100275.34;;;20.34;47.23
59435;BME280;45241;49.768;8.636;2023-05-29T00:33:49;100275.31;;;20.29;47.30
59435;BME280;45241;49.768;8.636;2023-05-29T00:36:15;100274.09;;;20.20;48.10
59435;BME280;45241;49.768;8.636;2023-05-29T00:38:41;100266.75;;;20.20;47.86
59435;BME280;45241;49.768;8.636;2023-05-29T00:41:06;100270.63;;;20.03;48.26
59435;BME280;45241;49.768;8.636;2023-05-29T00:43:31;100270.75;;;20.13;47.78
59435;BME280;45241;49.768;8.636;2023-05-29T00:45:57;100267.91;;;20.03;48.21
59435;BME280;45241;49.768;8.636;2023-05-29T00:48:23;100272.41;;;20.14;48.12
59435;BME280;45241;49.768;8.636;2023-05-29T00:50:48;100272.22;;;19.99;48.14
59435;BME280;45241;49.768;8.636;2023-05-29T00:53:14;100265.19;;;20.03;48.26
59435;BME280;45241;49.768;8.636;2023-05-29T00:55:39;100267.09;;;20.02;48.89
59435;BME280;45241;49.768;8.636;2023-05-29T00:58:05;100272.91;;;19.89;48.84
59435;BME280;45241;49.768;8.636;2023-05-29T01:00:31;100272.41;;;20.14;48.60
59435;BME280;45241;49.768;8.636;2023-05-29T01:02:58;100265.69;;;20.00;48.35
59435;BME280;45241;49.768;8.636;2023-05-29T01:05:24;100267.31;;;19.79;48.76
59435;BME280;45241;49.768;8.636;2023-05-29T01:07:49;100266.06;;;20.08;48.71
59435;BME280;45241;49.768;8.636;2023-05-29T01:10:15;100259.34;;;19.94;48.31
59435;BME280;45241;49.768;8.636;2023-05-29T01:12:57;100264.78;;;19.94;49.24
59435;BME280;45241;49.768;8.636;2023-05-29T01:18:30;100265.03;;;19.92;49.28
59435;BME280;45241;49.768;8.636;2023-05-29T01:26:30;100260.09;;;19.00;56.87
59435;BME280;45241;49.768;8.636;2023-05-29T01:28:57;100269.38;;;18.88;55.42
59435;BME280;45241;49.768;8.636;2023-05-29T01:31:26;100266.09;;;19.02;54.79
59435;BME280;45241;49.768;8.636;2023-05-29T01:33:56;100267.63;;;18.53;57.66
59435;BME280;45241;49.768;8.636;2023-05-29T01:36:22;100268.59;;;18.07;62.71
59435;BME280;45241;49.768;8.636;2023-05-29T01:38:49;100267.22;;;17.93;60.16
59435;BME280;45241;49.768;8.636;2023-05-29T01:41:16;100274.72;;;18.02;61.32
59435;BME280;45241;49.768;8.636;2023-05-29T01:43:43;100269.09;;;17.22;65.01
59435;BME280;45241;49.768;8.636;2023-05-29T01:46:10;100279.84;;;17.87;61.22
59435;BME280;45241;49.768;8.636;2023-05-29T01:48:36;100282.31;;;17.88;59.89
59435;BME280;45241;49.768;8.636;2023-05-29T01:51:01;100276.84;;;17.18;63.83
59435;BME280;45241;49.768;8.636;2023-05-29T01:53:27;100275.00;;;17.54;60.96
59435;BME280;45241;49.768;8.636;2023-05-29T01:55:52;100275.81;;;17.43;62.21
59435;BME280;45241;49.768;8.636;2023-05-29T01:58:20;100275.69;;;17.14;63.75
59435;BME280;45241;49.768;8.636;2023-05-29T02:00:47;100272.97;;;17.14;62.62
59435;BME280;45241;49.768;8.636;2023-05-29T02:03:12;100261.03;;;16.92;62.85
59435;BME280;45241;49.768;8.636;2023-05-29T02:05:38;100271.44;;;17.18;64.36
59435;BME280;45241;49.768;8.636;2023-05-29T02:08:03;100267.78;;;17.13;64.01
59435;BME280;45241;49.768;8.636;2023-05-29T02:10:28;100265.44;;;17.28;63.94
59435;BME280;45241;49.768;8.636;2023-05-29T02:12:55;100263.69;;;17.45;63.18
59435;BME280;45241;49.768;8.636;2023-05-29T02:15:20;100262.00;;;17.21;63.53
59435;BME280;45241;49.768;8.636;2023-05-29T02:17:45;100262.47;;;17.06;63.98
59435;BME280;45241;49.768;8.636;2023-05-29T02:20:11;100264.31;;;16.94;66.60
59435;BME280;45241;49.768;8.636;2023-05-29T02:22:36;100276.09;;;16.88;67.14
59435;BME280;45241;49.768;8.636;2023-05-29T02:25:02;100274.53;;;16.80;66.88
59435;BME280;45241;49.768;8.636;2023-05-29T02:27:27;100270.09;;;16.67;66.13
59435;BME280;45241;49.768;8.636;2023-05-29T02:29:53;100271.28;;;16.60;65.73
59435;BME280;45241;49.768;8.636;2023-05-29T02:32:18;100271.72;;;16.57;66.49
59435;BME280;45241;49.768;8.636;2023-05-29T02:34:43;100271.41;;;16.65;67.44
59435;BME280;45241;49.768;8.636;2023-05-29T02:37:09;100278.19;;;16.56;68.44
59435;BME280;45241;49.768;8.636;2023-05-29T02:39:34;100275.41;;;16.44;69.69
59435;BME280;45241;49.768;8.636;2023-05-29T02:42:00;100276.81;;;16.65;69.23
59435;BME280;45241;49.768;8.636;2023-05-29T02:44:25;100274.00;;;16.41;70.50
59435;BME280;45241;49.768;8.636;2023-05-29T02:46:50;100273.81;;;16.73;66.41
59435;BME280;45241;49.768;8.636;2023-05-29T02:49:16;100270.28;;;16.24;68.28
59435;BME280;45241;49.768;8.636;2023-05-29T02:51:41;100263.59;;;16.27;69.47
59435;BME280;45241;49.768;8.636;2023-05-29T02:54:06;100265.41;;;16.63;67.04
59435;BME280;45241;49.768;8.636;2023-05-29T02:56:32;100261.41;;;16.65;67.59
59435;BME280;45241;49.768;8.636;2023-05-29T02:58:58;100268.09;;;16.63;65.12
59435;BME280;45241;49.768;8.636;2023-05-29T03:01:23;100273.09;;;16.48;65.09
59435;BME280;45241;49.768;8.636;2023-05-29T03:03:48;100280.03;;;16.25;66.29
59435;BME280;45241;49.768;8.636;2023-05-29T03:06:13;100275.06;;;16.40;65.89
59435;BME280;45241;49.768;8.636;2023-05-29T03:08:41;100267.50;;;15.94;69.74
59435;BME280;45241;49.768;8.636;2023-05-29T03:11:10;100271.56;;;16.22;69.89
59435;BME280;45241;49.768;8.636;2023-05-29T03:13:36;100269.94;;;16.32;69.96
59435;BME280;45241;49.768;8.636;2023-05-29T03:16:02;100275.78;;;15.99;70.78
59435;BME280;45241;49.768;8.636;2023-05-29T03:18:27;100272.91;;;16.12;69.97
59435;BME280;45241;49.768;8.636;2023-05-29T03:20:53;100268.47;;;16.18;70.47
59435;BME280;45241;49.768;8.636;2023-05-29T03:23:19;100273.88;;;16.36;69.58
59435;BME280;45241;49.768;8.636;2023-05-29T03:25:44;100281.00;;;16.31;69.52
59435;BME280;45241;49.768;8.636;2023-05-29T03:28:10;100271.47;;;16.28;68.91
59435;BME280;45241;49.768;8.636;2023-05-29T03:30:35;100269.81;;;16.57;67.52
59435;BME280;45241;49.768;8.636;2023-05-29T03:33:01;100268.47;;;16.66;66.29
59435;BME280;45241;49.768;8.636;2023-05-29T03:35:29;100269.78;;;16.45;67.67
59435;BME280;45241;49.768;8.636;2023-05-29T03:37:54;100269.28;;;16.67;66.30
59435;BME280;45241;49.768;8.636;2023-05-29T03:40:20;100265.66;;;15.95;71.48
59435;BME280;45241;49.768;8.636;2023-05-29T03:42:45;100274.34;;;16.15;68.23
59435;BME280;45241;49.768;8.636;2023-05-29T03:45:10;100269.38;;;16.60;65.15
59435;BME280;45241;49.768;8.636;2023-05-29T03:47:36;100264.66;;;16.74;65.13
59435;BME280;45241;49.768;8.636;2023-05-29T03:50:01;100268.47;;;16.66;64.52
59435;BME280;45241;49.768;8.636;2023-05-29T03:52:27;100283.50;;;16.62;65.34
59435;BME280;45241;49.768;8.636;2023-05-29T03:54:52;100283.63;;;16.67;65.50
59435;BME280;45241;49.768;8.636;2023-05-29T03:57:17;100282.94;;;16.42;68.18
59435;BME280;45241;49.768;8.636;2023-05-29T03:59:43;100289.00;;;16.07;72.07
59435;BME280;45241;49.768;8.636;2023-05-29T04:02:08;100296.81;;;15.97;71.37
59435;BME280;45241;49.768;8.636;2023-05-29T04:04:33;100295.81;;;15.73;72.28
59435;BME280;45241;49.768;8.636;2023-05-29T04:06:59;100300.03;;;15.88;72.23
59435;BME280;45241;49.768;8.636;2023-05-29T04:09:24;100303.47;;;15.76;73.58
59435;BME280;45241;49.768;8.636;2023-05-29T04:11:50;100310.59;;;15.46;75.84
59435;BME280;45241;49.768;8.636;2023-05-29T04:14:17;100312.47;;;15.70;74.57
59435;BME280;45241;49.768;8.636;2023-05-29T04:16:42;100314.22;;;16.01;74.99
59435;BME280;45241;49.768;8.636;2023-05-29T04:19:07;100320.59;;;16.07;73.72
59435;BME280;45241;49.768;8.636;2023-05-29T04:21:33;100321.25;;;15.66;75.95
59435;BME280;45241;49.768;8.636;2023-05-29T04:23:58;100334.22;;;16.00;75.80
59435;BME280;45241;49.768;8.636;2023-05-29T04:26:23;100338.81;;;16.36;74.06
59435;BME280;45241;49.768;8.636;2023-05-29T04:28:54;100335.19;;;16.24;73.21
59435;BME280;45241;49.768;8.636;2023-05-29T04:31:23;100345.78;;;16.44;71.11
59435;BME280;45241;49.768;8.636;2023-05-29T04:33:53;100341.50;;;16.36;72.86
59435;BME280;45241;49.768;8.636;2023-05-29T04:36:25;100343.75;;;16.39;69.54
59435;BME280;45241;49.768;8.636;2023-05-29T04:38:53;100355.47;;;16.70;70.39
59435;BME280;45241;49.768;8.636;2023-05-29T04:41:19;100352.59;;;16.65;68.85
59435;BME280;45241;49.768;8.636;2023-05-29T04:43:49;100357.75;;;16.85;69.36
59435;BME280;45241;49.768;8.636;2023-05-29T04:46:14;100359.19;;;16.69;70.16
59435;BME280;45241;49.768;8.636;2023-05-29T04:48:40;100362.41;;;16.96;69.38
59435;BME280;45241;49.768;8.636;2023-05-29T04:51:06;100367.50;;;17.04;68.70
59435;BME280;45241;49.768;8.636;2023-05-29T04:53:32;100374.94;;;17.09;68.41
59435;BME280;45241;49.768;8.636;2023-05-29T04:55:57;100368.91;;;17.07;68.46
59435;BME280;45241;49.768;8.636;2023-05-29T04:58:25;100377.59;;;16.97;68.41
59435;BME280;45241;49.768;8.636;2023-05-29T05:00:51;100370.88;;;17.29;67.88
59435;BME280;45241;49.768;8.636;2023-05-29T05:03:16;100373.34;;;17.31;68.49
59435;BME280;45241;49.768;8.636;2023-05-29T05:05:42;100381.59;;;17.36;67.07
59435;BME280;45241;49.768;8.636;2023-05-29T05:08:09;100391.41;;;17.49;66.87
59435;BME280;45241;49.768;8.636;2023-05-29T05:10:35;100387.19;;;17.53;67.62
59435;BME280;45241;49.768;8.636;2023-05-29T05:13:00;100389.53;;;17.38;67.65
59435;BME280;45241;49.768;8.636;2023-05-29T05:15:28;100395.34;;;17.65;67.82
59435;BME280;45241;49.768;8.636;2023-05-29T05:17:53;100392.03;;;17.62;67.03
59435;BME280;45241;49.768;8.636;2023-05-29T05:20:18;100383.50;;;17.77;67.21
59435;BME280;45241;49.768;8.636;2023-05-29T05:22:44;100385.34;;;17.77;67.31
59435;BME280;45241;49.768;8.636;2023-05-29T05:25:09;100384.31;;;17.78;67.19
59435;BME280;45241;49.768;8.636;2023-05-29T05:27:35;100390.09;;;17.93;66.95
59435;BME280;45241;49.768;8.636;2023-05-29T05:30:02;100391.97;;;17.93;65.76
59435;BME280;45241;49.768;8.636;2023-05-29T05:32:28;100392.22;;;17.91;65.66
59435;BME280;45241;49.768;8.636;2023-05-29T05:34:53;100402.44;;;17.89;66.68
59435;BME280;45241;49.768;8.636;2023-05-29T05:37:18;100389.84;;;17.83;66.88
59435;BME280;45241;49.768;8.636;2023-05-29T05:39:44;100401.03;;;17.98;65.46
59435;BME280;45241;49.768;8.636;2023-05-29T05:42:09;100397.28;;;18.11;66.01
59435;BME280;45241;49.768;8.636;2023-05-29T05:44:34;100401.53;;;17.95;66.63
59435;BME280;45241;49.768;8.636;2023-05-29T05:47:00;100410.00;;;17.87;67.04
59435;BME280;45241;49.768;8.636;2023-05-29T05:49:26;100409.91;;;17.94;67.31
59435;BME280;45241;49.768;8.636;2023-05-29T05:51:51;100418.28;;;17.92;67.52
59435;BME280;45241;49.768;8.636;2023-05-29T05:54:16;100415.78;;;18.02;67.03
59435;BME280;45241;49.768;8.636;2023-05-29T05:56:42;100414.75;;;18.03;67.58
59435;BME280;45241;49.768;8.636;2023-05-29T05:59:07;100423.81;;;17.97;67.58
59435;BME280;45241;49.768;8.636;2023-05-29T06:01:32;100422.03;;;18.14;67.11
59435;BME280;45241;49.768;8.636;2023-05-29T06:03:58;100422.50;;;18.23;65.94
59435;BME280;45241;49.768;8.636;2023-05-29T06:06:23;100427.00;;;18.06;66.32
59435;BME280;45241;49.768;8.636;2023-05-29T06:08:49;100427.22;;;18.28;66.10
59435;BME280;45241;49.768;8.636;2023-05-29T06:11:14;100427.00;;;18.17;67.45
59435;BME280;45241;49.768;8.636;2023-05-29T06:13:40;100424.97;;;18.25;66.64
59435;BME280;45241;49.768;8.636;2023-05-29T06:16:05;100432.41;;;18.41;65.67
59435;BME280;45241;49.768;8.636;2023-05-29T06:18:31;100432.13;;;18.54;65.55
59435;BME280;45241;49.768;8.636;2023-05-29T06:20:56;100437.97;;;18.23;66.85
59435;BME280;45241;49.768;8.636;2023-05-29T06:23:21;100439.38;;;18.37;66.49
59435;BME280;45241;49.768;8.636;2023-05-29T06:25:47;100439.59;;;18.59;66.42
59435;BME280;45241;49.768;8.636;2023-05-29T06:28:12;100446.19;;;18.51;66.59
59435;BME280;45241;49.768;8.636;2023-05-29T06:30:38;100446.41;;;18.73;65.84
59435;BME280;45241;49.768;8.636;2023-05-29T06:33:04;100445.25;;;18.69;63.39
59435;BME280;45241;49.768;8.636;2023-05-29T06:35:30;100446.53;;;18.55;63.04
59435;BME280;45241;49.768;8.636;2023-05-29T06:37:56;100437.47;;;18.61;64.16
59435;BME280;45241;49.768;8.636;2023-05-29T06:40:21;100441.69;;;18.68;63.32
59435;BME280;45241;49.768;8.636;2023-05-29T06:42:47;100442.22;;;18.94;62.81
59435;BME280;45241;49.768;8.636;2023-05-29T06:45:12;100449.53;;;19.05;61.76
59435;BME280;45241;49.768;8.636;2023-05-29T06:47:44;100449.22;;;19.18;62.03
59435;BME280;45241;49.768;8.636;2023-05-29T06:50:09;100441.28;;;19.28;61.77
59435;BME280;45241;49.768;8.636;2023-05-29T06:52:35;100446.47;;;19.30;62.80
59435;BME280;45241;49.768;8.636;2023-05-29T06:55:01;100436.91;;;19.27;62.44
59435;BME280;45241;49.768;8.636;2023-05-29T06:57:26;100431.22;;;19.29;60.98
59435;BME280;45241;49.768;8.636;2023-05-29T06:59:52;100432.56;;;19.43;61.11
59435;BME280;45241;49.768;8.636;2023-05-29T07:02:17;100427.75;;;19.62;61.24
59435;BME280;45241;49.768;8.636;2023-05-29T07:04:42;100431.00;;;19.76;61.84
59435;BME280;45241;49.768;8.636;2023-05-29T07:07:08;100427.13;;;19.88;61.83
59435;BME280;45241;49.768;8.636;2023-05-29T07:09:33;100435.19;;;19.83;60.04
59435;BME280;45241;49.768;8.636;2023-05-29T07:11:58;100438.19;;;19.99;59.80
59435;BME280;45241;49.768;8.636;2023-05-29T07:14:23;100440.91;;;19.99;59.20
59435;BME280;45241;49.768;8.636;2023-05-29T07:16:49;100430.00;;;20.15;58.12
59435;BME280;45241;49.768;8.636;2023-05-29T07:19:15;100433.34;;;20.22;57.23
59435;BME280;45241;49.768;8.636;2023-05-29T07:21:41;100441.16;;;20.36;57.08
59435;BME280;45241;49.768;8.636;2023-05-29T07:24:07;100431.66;;;20.55;56.78
59435;BME280;45241;49.768;8.636;2023-05-29T07:26:32;100438.75;;;20.56;55.99
59435;BME280;45241;49.768;8.636;2023-05-29T07:28:57;100440.44;;;20.40;56.85
59435;BME280;45241;49.768;8.636;2023-05-29T07:31:23;100443.09;;;20.57;56.28
59435;BME280;45241;49.768;8.636;2023-05-29T07:33:48;100442.84;;;20.59;56.96
59435;BME280;45241;49.768;8.636;2023-05-29T07:36:15;100439.22;;;20.70;55.99
59435;BME280;45241;49.768;8.636;2023-05-29T07:38:41;100449.63;;;20.95;57.03
59435;BME280;45241;49.768;8.636;2023-05-29T07:41:06;100446.06;;;20.94;56.30
59435;BME280;45241;49.768;8.636;2023-05-29T07:43:32;100445.97;;;21.11;56.44
59435;BME280;45241;49.768;8.636;2023-05-29T07:45:57;100439.03;;;21.25;56.00
59435;BME280;45241;49.768;8.636;2023-05-29T07:48:23;100436.31;;;21.25;55.38
59435;BME280;45241;49.768;8.636;2023-05-29T07:50:48;100432.38;;;21.38;54.95
59435;BME280;45241;49.768;8.636;2023-05-29T07:53:13;100432.06;;;21.34;52.49
59435;BME280;45241;49.768;8.636;2023-05-29T07:55:38;100432.66;;;21.14;52.40
59435;BME280;45241;49.768;8.636;2023-05-29T07:58:04;100432.25;;;21.28;52.92
59435;BME280;45241;49.768;8.636;2023-05-29T08:00:29;100432.72;;;21.47;52.50
59435;BME280;45241;49.768;8.636;2023-05-29T08:02:54;100435.41;;;21.41;52.17
59435;BME280;45241;49.768;8.636;2023-05-29T08:05:20;100433.19;;;21.65;53.95
59435;BME280;45241;49.768;8.636;2023-05-29T08:07:45;100432.91;;;21.94;53.56
59435;BME280;45241;49.768;8.636;2023-05-29T08:10:12;100435.13;;;22.02;52.07
59435;BME280;45241;49.768;8.636;2023-05-29T08:12:37;100436.47;;;21.99;52.65
59435;BME280;45241;49.768;8.636;2023-05-29T08:15:03;100444.56;;;22.21;52.77
59435;BME280;45241;49.768;8.636;2023-05-29T08:17:29;100442.16;;;22.30;52.42
59435;BME280;45241;49.768;8.636;2023-05-29T08:19:54;100442.69;;;22.32;51.49
59435;BME280;45241;49.768;8.636;2023-05-29T08:22:20;100450.97;;;22.37;52.26
59435;BME280;45241;49.768;8.636;2023-05-29T08:24:47;100448.38;;;22.63;52.50
59435;BME280;45241;49.768;8.636;2023-05-29T08:27:12;100452.53;;;22.75;52.44
59435;BME280;45241;49.768;8.636;2023-05-29T08:29:38;100457.47;;;22.83;53.08
59435;BME280;45241;49.768;8.636;2023-05-29T08:32:04;100457.56;;;23.04;51.86
59435;BME280;45241;49.768;8.636;2023-05-29T08:34:29;100459.16;;;22.95;51.68
59435;BME280;45241;49.768;8.636;2023-05-29T08:36:56;100448.78;;;22.92;51.95
59435;BME280;45241;49.768;8.636;2023-05-29T08:39:22;100451.13;;;23.25;52.91
59435;BME280;45241;49.768;8.636;2023-05-29T08:42:01;100458.22;;;23.26;52.74
59435;BME280;45241;49.768;8.636;2023-05-29T08:44:30;100451.91;;;23.21;52.05
59435;BME280;45241;49.768;8.636;2023-05-29T08:47:02;100468.66;;;23.39;51.44
59435;BME280;45241;49.768;8.636;2023-05-29T08:49:40;100469.19;;;23.41;50.65
59435;BME280;45241;49.768;8.636;2023-05-29T08:52:18;100471.13;;;23.61;51.82
59435;BME280;45241;49.768;8.636;2023-05-29T08:54:44;100464.84;;;23.61;50.68
59435;BME280;45241;49.768;8.636;2023-05-29T08:57:13;100459.94;;;23.73;51.04
59435;BME280;45241;49.768;8.636;2023-05-29T08:59:42;100472.25;;;23.75;50.08
59435;BME280;45241;49.768;8.636;2023-05-29T09:02:10;100470.63;;;23.85;51.06
59435;BME280;45241;49.768;8.636;2023-05-29T09:04:36;100470.88;;;23.73;49.96
59435;BME280;45241;49.768;8.636;2023-05-29T09:07:02;100473.38;;;23.80;50.24
59435;BME280;45241;49.768;8.636;2023-05-29T09:09:29;100467.09;;;24.04;49.96
59435;BME280;45241;49.768;8.636;2023-05-29T09:11:57;100473.09;;;24.27;49.53
59435;BME280;45241;49.768;8.636;2023-05-29T09:14:35;100476.06;;;24.41;50.02
59435;BME280;45241;49.768;8.636;2023-05-29T09:17:02;100471.41;;;24.51;49.71
59435;BME280;45241;49.768;8.636;2023-05-29T09:19:28;100461.00;;;24.69;48.72
59435;BME280;45241;49.768;8.636;2023-05-29T09:22:00;100471.38;;;24.72;48.42
59435;BME280;45241;49.768;8.636;2023-05-29T09:24:27;100464.78;;;24.78;48.48
59435;BME280;45241;49.768;8.636;2023-05-29T09:26:53;100467.50;;;24.78;48.58
59435;BME280;45241;49.768;8.636;2023-05-29T09:29:18;100475.25;;;24.55;48.39
59435;BME280;45241;49.768;8.636;2023-05-29T09:31:47;100469.06;;;25.04;48.19
59435;BME280;45241;49.768;8.636;2023-05-29T09:34:12;100466.56;;;25.13;48.29
59435;BME280;45241;49.768;8.636;2023-05-29T09:36:38;100471.03;;;24.93;46.84
59435;BME280;45241;49.768;8.636;2023-05-29T09:39:03;100462.25;;;24.97;46.31
59435;BME280;45241;49.768;8.636;2023-05-29T09:41:29;100464.34;;;25.20;46.37
59435;BME280;45241;49.768;8.636;2023-05-29T09:43:56;100465.16;;;25.15;47.10
59435;BME280;45241;49.768;8.636;2023-05-29T09:46:25;100464.75;;;25.42;46.78
59435;BME280;45241;49.768;8.636;2023-05-29T09:48:51;100465.69;;;25.22;45.71
59435;BME280;45241;49.768;8.636;2023-05-29T09:51:23;100472.72;;;25.44;45.78
59435;BME280;45241;49.768;8.636;2023-05-29T09:53:49;100467.28;;;25.29;45.42
59435;BME280;45241;49.768;8.636;2023-05-29T09:56:22;100472.75;;;25.78;45.10
59435;BME280;45241;49.768;8.636;2023-05-29T09:58:49;100472.75;;;25.78;44.35
59435;BME280;45241;49.768;8.636;2023-05-29T10:01:16;100467.97;;;25.55;44.36
59435;BME280;45241;49.768;8.636;2023-05-29T10:03:42;100459.28;;;25.42;44.06
59435;BME280;45241;49.768;8.636;2023-05-29T10:06:10;100461.72;;;25.44;44.18
59435;BME280;45241;49.768;8.636;2023-05-29T10:08:39;100468.72;;;25.65;44.41
59435;BME280;45241;49.768;8.636;2023-05-29T10:11:09;100459.38;;;25.66;45.67
59435;BME280;45241;49.768;8.636;2023-05-29T10:13:41;100460.59;;;26.23;44.57
59435;BME280;45241;49.768;8.636;2023-05-29T10:16:10;100454.41;;;26.36;45.30
59435;BME280;45241;49.768;8.636;2023-05-29T10:18:43;100448.81;;;26.18;44.61
59435;BME280;45241;49.768;8.636;2023-05-29T10:21:11;100450.16;;;26.49;43.06
59435;BME280;45241;49.768;8.636;2023-05-29T10:23:37;100445.06;;;26.37;43.74
59435;BME280;45241;49.768;8.636;2023-05-29T10:26:29;100446.06;;;26.71;43.17
59435;BME280;45241;49.768;8.636;2023-05-29T10:29:08;100442.25;;;26.43;42.29
59435;BME280;45241;49.768;8.636;2023-05-29T10:32:01;100445.84;;;26.91;42.60
59435;BME280;45241;49.768;8.636;2023-05-29T10:40:08;100448.91;;;27.08;41.09
59435;BME280;45241;49.768;8.636;2023-05-29T10:42:45;100440.53;;;27.18;41.30
59435;BME280;45241;49.768;8.636;2023-05-29T10:53:06;100446.09;;;27.32;40.58
59435;BME280;45241;49.768;8.636;2023-05-29T10:55:35;100440.81;;;27.36;39.42
59435;BME280;45241;49.768;8.636;2023-05-29T10:58:24;100443.81;;;27.58;39.85
59435;BME280;45241;49.768;8.636;2023-05-29T11:00:50;100447.75;;;27.71;39.55
59435;BME280;45241;49.768;8.636;2023-05-29T11:03:21;100444.75;;;27.86;39.07
59435;BME280;45241;49.768;8.636;2023-05-29T11:08:44;100437.66;;;27.47;38.72
59435;BME280;45241;49.768;8.636;2023-05-29T11:11:15;100441.88;;;27.59;39.67
59435;BME280;45241;49.768;8.636;2023-05-29T11:13:41;100440.31;;;27.52;39.89
59435;BME280;45241;49.768;8.636;2023-05-29T11:18:52;100431.91;;;28.28;38.34
59435;BME280;45241;49.768;8.636;2023-05-29T11:21:53;100441.22;;;27.99;39.92
59435;BME280;45241;49.768;8.636;2023-05-29T11:24:22;100443.28;;;28.07;39.90
59435;BME280;45241;49.768;8.636;2023-05-29T11:26:53;100444.31;;;28.58;38.86
59435;BME280;45241;49.768;8.636;2023-05-29T11:29:27;100438.34;;;28.37;40.17
59435;BME280;45241;49.768;8.636;2023-05-29T11:32:05;100435.38;;;28.20;38.83
59435;BME280;45241;49.768;8.636;2023-05-29T11:34:33;100439.06;;;28.56;38.11
59435;BME280;45241;49.768;8.636;2023-05-29T11:37:02;100431.81;;;28.33;37.54
59435;BME280;45241;49.768;8.636;2023-05-29T11:39:28;100420.56;;;28.43;38.06
59435;BME280;45241;49.768;8.636;2023-05-29T11:41:54;100420.97;;;28.23;37.99
59435;BME280;45241;49.768;8.636;2023-05-29T11:44:20;100411.22;;;27.98;39.21
59435;BME280;45241;49.768;8.636;2023-05-29T11:47:05;100423.44;;;28.24;38.48
59435;BME280;45241;49.768;8.636;2023-05-29T11:49:33;100412.53;;;28.60;37.38
59435;BME280;45241;49.768;8.636;2023-05-29T11:52:12;100428.75;;;28.21;37.12
59435;BME280;45241;49.768;8.636;2023-05-29T11:54:39;100420.00;;;28.46;37.54
59435;BME280;45241;49.768;8.636;2023-05-29T11:57:05;100415.00;;;28.76;36.08
59435;BME280;45241;49.768;8.636;2023-05-29T11:59:32;100425.91;;;28.81;37.32
59435;BME280;45241;49.768;8.636;2023-05-29T12:01:59;100410.06;;;28.72;34.88
59435;BME280;45241;49.768;8.636;2023-05-29T12:04:24;100420.47;;;29.03;34.95
59435;BME280;45241;49.768;8.636;2023-05-29T12:06:50;100411.41;;;29.39;34.77
59435;BME280;45241;49.768;8.636;2023-05-29T12:09:26;100405.56;;;28.63;36.45
59435;BME280;45241;49.768;8.636;2023-05-29T12:11:51;100403.13;;;29.39;36.34
59435;BME280;45241;49.768;8.636;2023-05-29T12:14:17;100405.88;;;29.61;36.00
59435;BME280;45241;49.768;8.636;2023-05-29T12:16:42;100410.00;;;29.64;35.93
59435;BME280;45241;49.768;8.636;2023-05-29T12:19:08;100411.31;;;29.30;35.95
59435;BME280;45241;49.768;8.636;2023-05-29T12:21:33;100406.13;;;29.96;35.36
59435;BME280;45241;49.768;8.636;2023-05-29T12:24:00;100398.81;;;29.10;34.47
59435;BME280;45241;49.768;8.636;2023-05-29T12:26:25;100392.22;;;29.78;33.84
59435;BME280;45241;49.768;8.636;2023-05-29T12:28:51;100403.75;;;29.80;34.08
59435;BME280;45241;49.768;8.636;2023-05-29T12:31:27;100399.38;;;30.02;33.43
59435;BME280;45241;49.768;8.636;2023-05-29T12:34:07;100404.69;;;29.98;33.66
59435;BME280;45241;49.768;8.636;2023-05-29T12:36:33;100392.13;;;29.47;33.78
59435;BME280;45241;49.768;8.636;2023-05-29T12:38:58;100390.06;;;29.98;33.46
59435;BME280;45241;49.768;8.636;2023-05-29T12:43:57;100403.91;;;29.75;34.00
59435;BME280;45241;49.768;8.636;2023-05-29T12:46:26;100394.53;;;28.90;34.08
59435;BME280;45241;49.768;8.636;2023-05-29T12:48:55;100398.75;;;29.24;34.34
59435;BME280;45241;49.768;8.636;2023-05-29T12:51:28;100386.56;;;29.39;33.81
59435;BME280;45241;49.768;8.636;2023-05-29T12:53:53;100386.56;;;29.39;34.31
59435;BME280;45241;49.768;8.636;2023-05-29T12:56:22;100390.00;;;29.67;33.71
59435;BME280;45241;49.768;8.636;2023-05-29T12:58:50;100388.94;;;29.99;33.72
59435;BME280;45241;49.768;8.636;2023-05-29T13:01:15;100386.91;;;29.91;32.45
59435;BME280;45241;49.768;8.636;2023-05-29T13:03:41;100374.91;;;29.28;33.26
59435;BME280;45241;49.768;8.636;2023-05-29T13:06:06;100382.28;;;30.39;33.32
59435;BME280;45241;49.768;8.636;2023-05-29T13:08:32;100389.81;;;29.41;33.65
59435;BME280;45241;49.768;8.636;2023-05-29T13:10:57;100390.34;;;29.65;33.78
59435;BME280;45241;49.768;8.636;2023-05-29T13:13:23;100382.31;;;29.86;33.22
59435;BME280;45241;49.768;8.636;2023-05-29T13:15:48;100386.06;;;30.12;33.33
59435;BME280;45241;49.768;8.636;2023-05-29T13:18:13;100374.94;;;29.73;33.45
59435;BME280;45241;49.768;8.636;2023-05-29T13:20:38;100372.25;;;29.37;33.29